sensor_id;sensor_type;location;lat;lon;timestamp;P1;durP1;ratioP1;P2;durP2;ratioP2
7410;SDS011;3747;48.628;9.058;2023-04-05T00:01:56;9.50;;;7.80;;
7410;SDS011;3747;48.628;9.058;2023-04-05T00:04:24;10.67;;;7.53;;
7410;SDS011;3747;48.628;9.058;2023-04-05T00:06:52;11.23;;;8.73;;
7410;SDS011;3747;48.628;9.058;2023-04-05T00:09:21;14.60;;;10.20;;
7410;SDS011;3747;48.628;9.058;2023-04-05T00:11:48;14.13;;;9.33;;
7410;SDS011;3747;48.628;9.058;2023-04-05T00:14:14;9.57;;;7.00;;
7410;SDS011;3747;48.628;9.058;2023-04-05T00:16:42;8.93;;;7.50;;
7410;SDS011;3747;48.628;9.058;2023-04-05T00:19:09;10.13;;;7.13;;
7410;SDS011;3747;48.628;9.058;2023-04-05T00:21:37;8.77;;;6.93;;
7410;SDS011;3747;48.628;9.058;2023-04-05T00:24:04;7.17;;;6.47;;
7410;SDS011;3747;48.628;9.058;2023-04-05T00:26:32;8.30;;;7.03;;
7410;SDS011;3747;48.628;9.058;2023-04-05T00:28:58;11.50;;;7.27;;
7410;SDS011;3747;48.628;9.058;2023-04-05T00:31:25;9.50;;;6.37;;
7410;SDS011;3747;48.628;9.058;2023-04-05T00:33:55;8.40;;;6.23;;
7410;SDS011;3747;48.628;9.058;2023-04-05T00:36:21;7.63;;;6.40;;
7410;SDS011;3747;48.628;9.058;2023-04-05T00:38:48;8.40;;;6.57;;
7410;SDS011;3747;48.628;9.058;2023-04-05T00:41:15;6.87;;;6.10;;
7410;SDS011;3747;48.628;9.058;2023-04-05T00:43:41;6.87;;;6.27;;
7410;SDS011;3747;48.628;9.058;2023-04-05T00:46:08;6.50;;;5.90;;
7410;SDS011;3747;48.628;9.058;2023-04-05T00:48:35;6.73;;;6.13;;
7410;SDS011;3747;48.628;9.058;2023-04-05T00:51:05;7.57;;;6.13;;
7410;SDS011;3747;48.628;9.058;2023-04-05T00:53:35;8.87;;;6.23;;
7410;SDS011;3747;48.628;9.058;2023-04-05T00:56:02;8.90;;;6.63;;
7410;SDS011;3747;48.628;9.058;2023-04-05T00:58:29;9.27;;;6.63;;
7410;SDS011;3747;48.628;9.058;2023-04-05T01:00:59;7.50;;;6.53;;
7410;SDS011;3747;48.628;9.058;2023-04-05T01:03:30;9.27;;;6.60;;
7410;SDS011;3747;48.628;9.058;2023-04-05T01:06:03;8.20;;;6.77;;
7410;SDS011;3747;48.628;9.058;2023-04-05T01:08:39;6.53;;;5.90;;
7410;SDS011;3747;48.628;9.058;2023-04-05T01:11:14;9.23;;;7.10;;
7410;SDS011;3747;48.628;9.058;2023-04-05T01:13:43;9.10;;;6.50;;
7410;SDS011;3747;48.628;9.058;2023-04-05T01:16:11;7.60;;;6.07;;
7410;SDS011;3747;48.628;9.058;2023-04-05T01:18:37;7.37;;;6.37;;
7410;SDS011;3747;48.628;9.058;2023-04-05T01:21:11;7.90;;;6.67;;
7410;SDS011;3747;48.628;9.058;2023-04-05T01:24:04;7.83;;;6.77;;
7410;SDS011;3747;48.628;9.058;2023-04-05T01:26:52;8.53;;;6.70;;
7410;SDS011;3747;48.628;9.058;2023-04-05T01:32:43;8.70;;;6.43;;
7410;SDS011;3747;48.628;9.058;2023-04-05T01:35:20;8.93;;;6.63;;
7410;SDS011;3747;48.628;9.058;2023-04-05T01:37:54;8.10;;;6.40;;
7410;SDS011;3747;48.628;9.058;2023-04-05T01:40:24;9.47;;;7.10;;
7410;SDS011;3747;48.628;9.058;2023-04-05T01:42:52;8.03;;;7.20;;
7410;SDS011;3747;48.628;9.058;2023-04-05T01:45:20;8.83;;;7.23;;
7410;SDS011;3747;48.628;9.058;2023-04-05T01:47:47;10.17;;;7.13;;
7410;SDS011;3747;48.628;9.058;2023-04-05T01:50:13;9.23;;;6.53;;
7410;SDS011;3747;48.628;9.058;2023-04-05T01:52:40;8.03;;;6.57;;
7410;SDS011;3747;48.628;9.058;2023-04-05T01:55:07;12.00;;;7.47;;
7410;SDS011;3747;48.628;9.058;2023-04-05T01:57:34;10.60;;;7.73;;
7410;SDS011;3747;48.628;9.058;2023-04-05T02:00:01;8.00;;;7.23;;
7410;SDS011;3747;48.628;9.058;2023-04-05T02:02:29;9.63;;;7.27;;
7410;SDS011;3747;48.628;9.058;2023-04-05T02:04:56;9.80;;;7.87;;
7410;SDS011;3747;48.628;9.058;2023-04-05T02:07:23;8.97;;;6.63;;
7410;SDS011;3747;48.628;9.058;2023-04-05T02:09:51;9.23;;;7.17;;
7410;SDS011;3747;48.628;9.058;2023-04-05T02:12:17;8.70;;;7.20;;
7410;SDS011;3747;48.628;9.058;2023-04-05T02:14:44;9.87;;;7.60;;
7410;SDS011;3747;48.628;9.058;2023-04-05T02:17:11;10.73;;;8.03;;
7410;SDS011;3747;48.628;9.058;2023-04-05T02:19:39;9.53;;;7.37;;
7410;SDS011;3747;48.628;9.058;2023-04-05T02:22:05;8.97;;;7.33;;
7410;SDS011;3747;48.628;9.058;2023-04-05T02:24:32;10.87;;;7.90;;
7410;SDS011;3747;48.628;9.058;2023-04-05T02:26:59;9.87;;;7.47;;
7410;SDS011;3747;48.628;9.058;2023-04-05T02:29:26;11.23;;;7.57;;
7410;SDS011;3747;48.628;9.058;2023-04-05T02:31:52;10.53;;;7.50;;
7410;SDS011;3747;48.628;9.058;2023-04-05T02:34:19;8.10;;;7.00;;
7410;SDS011;3747;48.628;9.058;2023-04-05T02:36:49;10.73;;;7.67;;
7410;SDS011;3747;48.628;9.058;2023-04-05T02:39:16;9.57;;;7.93;;
7410;SDS011;3747;48.628;9.058;2023-04-05T02:41:43;11.57;;;8.70;;
7410;SDS011;3747;48.628;9.058;2023-04-05T02:44:10;10.17;;;7.97;;
7410;SDS011;3747;48.628;9.058;2023-04-05T02:46:37;10.47;;;7.90;;
7410;SDS011;3747;48.628;9.058;2023-04-05T02:49:04;9.80;;;7.33;;
7410;SDS011;3747;48.628;9.058;2023-04-05T02:51:31;8.87;;;7.63;;
7410;SDS011;3747;48.628;9.058;2023-04-05T02:54:00;9.27;;;8.27;;
7410;SDS011;3747;48.628;9.058;2023-04-05T02:56:27;11.23;;;7.53;;
7410;SDS011;3747;48.628;9.058;2023-04-05T02:58:54;12.77;;;8.13;;
7410;SDS011;3747;48.628;9.058;2023-04-05T03:01:21;10.20;;;8.77;;
7410;SDS011;3747;48.628;9.058;2023-04-05T03:03:48;10.27;;;7.43;;
7410;SDS011;3747;48.628;9.058;2023-04-05T03:06:15;10.90;;;8.87;;
7410;SDS011;3747;48.628;9.058;2023-04-05T03:08:42;9.17;;;8.03;;
7410;SDS011;3747;48.628;9.058;2023-04-05T03:11:11;11.17;;;8.37;;
7410;SDS011;3747;48.628;9.058;2023-04-05T03:13:38;12.53;;;9.13;;
7410;SDS011;3747;48.628;9.058;2023-04-05T03:16:06;9.10;;;7.33;;
7410;SDS011;3747;48.628;9.058;2023-04-05T03:18:33;13.03;;;8.70;;
7410;SDS011;3747;48.628;9.058;2023-04-05T03:20:59;9.50;;;7.53;;
7410;SDS011;3747;48.628;9.058;2023-04-05T03:23:29;9.13;;;8.00;;
7410;SDS011;3747;48.628;9.058;2023-04-05T03:25:57;11.13;;;7.97;;
7410;SDS011;3747;48.628;9.058;2023-04-05T03:28:26;9.37;;;7.80;;
7410;SDS011;3747;48.628;9.058;2023-04-05T03:30:53;11.30;;;8.13;;
7410;SDS011;3747;48.628;9.058;2023-04-05T03:33:20;12.13;;;8.47;;
7410;SDS011;3747;48.628;9.058;2023-04-05T03:35:47;11.67;;;9.13;;
7410;SDS011;3747;48.628;9.058;2023-04-05T03:38:13;10.43;;;8.83;;
7410;SDS011;3747;48.628;9.058;2023-04-05T03:40:40;12.53;;;8.77;;
7410;SDS011;3747;48.628;9.058;2023-04-05T03:43:07;11.83;;;8.53;;
7410;SDS011;3747;48.628;9.058;2023-04-05T03:45:35;11.50;;;8.07;;
7410;SDS011;3747;48.628;9.058;2023-04-05T03:48:02;12.63;;;8.83;;
7410;SDS011;3747;48.628;9.058;2023-04-05T03:50:29;10.03;;;7.60;;
7410;SDS011;3747;48.628;9.058;2023-04-05T03:52:56;9.07;;;7.90;;
7410;SDS011;3747;48.628;9.058;2023-04-05T03:55:23;12.07;;;8.77;;
7410;SDS011;3747;48.628;9.058;2023-04-05T03:57:50;9.90;;;8.40;;
7410;SDS011;3747;48.628;9.058;2023-04-05T04:00:17;9.37;;;7.80;;
7410;SDS011;3747;48.628;9.058;2023-04-05T04:02:46;13.17;;;8.07;;
7410;SDS011;3747;48.628;9.058;2023-04-05T04:05:13;12.73;;;8.50;;
7410;SDS011;3747;48.628;9.058;2023-04-05T04:07:42;11.07;;;7.70;;
7410;SDS011;3747;48.628;9.058;2023-04-05T04:10:10;11.53;;;8.67;;
7410;SDS011;3747;48.628;9.058;2023-04-05T04:12:37;11.87;;;9.07;;
7410;SDS011;3747;48.628;9.058;2023-04-05T04:15:05;14.57;;;9.30;;
7410;SDS011;3747;48.628;9.058;2023-04-05T04:17:32;13.37;;;9.93;;
7410;SDS011;3747;48.628;9.058;2023-04-05T04:20:02;11.67;;;9.53;;
7410;SDS011;3747;48.628;9.058;2023-04-05T04:22:32;14.00;;;9.80;;
7410;SDS011;3747;48.628;9.058;2023-04-05T04:25:03;16.93;;;9.73;;
7410;SDS011;3747;48.628;9.058;2023-04-05T04:27:33;13.50;;;9.73;;
7410;SDS011;3747;48.628;9.058;2023-04-05T04:30:01;13.07;;;10.90;;
7410;SDS011;3747;48.628;9.058;2023-04-05T04:32:28;13.90;;;10.90;;
7410;SDS011;3747;48.628;9.058;2023-04-05T04:35:10;13.73;;;9.53;;
7410;SDS011;3747;48.628;9.058;2023-04-05T04:37:38;12.07;;;9.13;;
7410;SDS011;3747;48.628;9.058;2023-04-05T04:40:11;12.07;;;9.20;;
7410;SDS011;3747;48.628;9.058;2023-04-05T04:45:11;11.90;;;9.97;;
7410;SDS011;3747;48.628;9.058;2023-04-05T04:47:40;11.27;;;9.40;;
7410;SDS011;3747;48.628;9.058;2023-04-05T04:50:07;11.73;;;9.70;;
7410;SDS011;3747;48.628;9.058;2023-04-05T04:52:36;13.87;;;9.33;;
7410;SDS011;3747;48.628;9.058;2023-04-05T04:55:03;12.20;;;9.53;;
7410;SDS011;3747;48.628;9.058;2023-04-05T04:57:31;15.90;;;9.77;;
7410;SDS011;3747;48.628;9.058;2023-04-05T04:59:57;10.90;;;9.23;;
7410;SDS011;3747;48.628;9.058;2023-04-05T05:02:24;12.50;;;8.97;;
7410;SDS011;3747;48.628;9.058;2023-04-05T05:04:51;14.13;;;10.73;;
7410;SDS011;3747;48.628;9.058;2023-04-05T05:07:18;15.53;;;11.13;;
7410;SDS011;3747;48.628;9.058;2023-04-05T05:09:47;12.93;;;10.63;;
7410;SDS011;3747;48.628;9.058;2023-04-05T05:12:16;15.93;;;11.23;;
7410;SDS011;3747;48.628;9.058;2023-04-05T05:14:44;15.47;;;9.77;;
7410;SDS011;3747;48.628;9.058;2023-04-05T05:17:10;13.53;;;10.20;;
7410;SDS011;3747;48.628;9.058;2023-04-05T05:19:37;13.70;;;10.37;;
7410;SDS011;3747;48.628;9.058;2023-04-05T05:22:04;15.10;;;10.00;;
7410;SDS011;3747;48.628;9.058;2023-04-05T05:24:30;17.13;;;10.63;;
7410;SDS011;3747;48.628;9.058;2023-04-05T05:26:58;18.57;;;11.80;;
7410;SDS011;3747;48.628;9.058;2023-04-05T05:29:25;16.07;;;11.60;;
7410;SDS011;3747;48.628;9.058;2023-04-05T05:31:52;16.97;;;12.23;;
7410;SDS011;3747;48.628;9.058;2023-04-05T05:34:19;18.00;;;12.50;;
7410;SDS011;3747;48.628;9.058;2023-04-05T05:36:46;17.33;;;11.63;;
7410;SDS011;3747;48.628;9.058;2023-04-05T05:39:12;16.90;;;11.40;;
7410;SDS011;3747;48.628;9.058;2023-04-05T05:41:39;13.90;;;10.83;;
7410;SDS011;3747;48.628;9.058;2023-04-05T05:44:07;14.10;;;10.53;;
7410;SDS011;3747;48.628;9.058;2023-04-05T05:46:34;14.60;;;10.13;;
7410;SDS011;3747;48.628;9.058;2023-04-05T05:49:01;14.13;;;10.10;;
7410;SDS011;3747;48.628;9.058;2023-04-05T05:51:27;14.90;;;11.13;;
7410;SDS011;3747;48.628;9.058;2023-04-05T05:53:56;16.03;;;11.10;;
7410;SDS011;3747;48.628;9.058;2023-04-05T05:56:23;14.33;;;9.93;;
7410;SDS011;3747;48.628;9.058;2023-04-05T05:58:50;16.90;;;11.73;;
7410;SDS011;3747;48.628;9.058;2023-04-05T06:01:18;13.57;;;9.70;;
7410;SDS011;3747;48.628;9.058;2023-04-05T06:03:47;17.60;;;10.93;;
7410;SDS011;3747;48.628;9.058;2023-04-05T06:06:14;17.30;;;11.10;;
7410;SDS011;3747;48.628;9.058;2023-04-05T06:08:41;14.47;;;10.27;;
7410;SDS011;3747;48.628;9.058;2023-04-05T06:11:15;13.13;;;9.57;;
7410;SDS011;3747;48.628;9.058;2023-04-05T06:13:42;11.07;;;8.87;;
7410;SDS011;3747;48.628;9.058;2023-04-05T06:16:09;15.23;;;11.03;;
7410;SDS011;3747;48.628;9.058;2023-04-05T06:18:37;14.63;;;9.43;;
7410;SDS011;3747;48.628;9.058;2023-04-05T06:21:03;14.00;;;9.47;;
7410;SDS011;3747;48.628;9.058;2023-04-05T06:23:30;12.27;;;9.10;;
7410;SDS011;3747;48.628;9.058;2023-04-05T06:25:57;8.40;;;7.50;;
7410;SDS011;3747;48.628;9.058;2023-04-05T06:28:24;9.67;;;8.00;;
7410;SDS011;3747;48.628;9.058;2023-04-05T06:30:51;12.17;;;8.67;;
7410;SDS011;3747;48.628;9.058;2023-04-05T06:33:18;8.83;;;7.57;;
7410;SDS011;3747;48.628;9.058;2023-04-05T06:35:46;11.03;;;7.03;;
7410;SDS011;3747;48.628;9.058;2023-04-05T06:38:13;11.17;;;7.63;;
7410;SDS011;3747;48.628;9.058;2023-04-05T06:40:39;10.73;;;7.53;;
7410;SDS011;3747;48.628;9.058;2023-04-05T06:43:06;10.97;;;8.07;;
7410;SDS011;3747;48.628;9.058;2023-04-05T06:45:34;10.67;;;8.27;;
7410;SDS011;3747;48.628;9.058;2023-04-05T06:48:02;12.07;;;7.90;;
7410;SDS011;3747;48.628;9.058;2023-04-05T06:50:29;10.83;;;8.60;;
7410;SDS011;3747;48.628;9.058;2023-04-05T06:52:57;8.60;;;7.23;;
7410;SDS011;3747;48.628;9.058;2023-04-05T06:55:24;10.23;;;7.23;;
7410;SDS011;3747;48.628;9.058;2023-04-05T06:57:51;9.10;;;7.77;;
7410;SDS011;3747;48.628;9.058;2023-04-05T07:00:17;9.07;;;6.97;;
7410;SDS011;3747;48.628;9.058;2023-04-05T07:02:45;8.70;;;7.10;;
7410;SDS011;3747;48.628;9.058;2023-04-05T07:05:11;9.13;;;6.53;;
7410;SDS011;3747;48.628;9.058;2023-04-05T07:07:38;8.30;;;6.50;;
7410;SDS011;3747;48.628;9.058;2023-04-05T07:10:08;6.10;;;5.30;;
7410;SDS011;3747;48.628;9.058;2023-04-05T07:12:35;7.27;;;5.87;;
7410;SDS011;3747;48.628;9.058;2023-04-05T07:15:02;6.23;;;5.63;;
7410;SDS011;3747;48.628;9.058;2023-04-05T07:17:29;9.00;;;5.93;;
7410;SDS011;3747;48.628;9.058;2023-04-05T07:19:56;7.10;;;5.43;;
7410;SDS011;3747;48.628;9.058;2023-04-05T07:22:22;7.57;;;6.20;;
7410;SDS011;3747;48.628;9.058;2023-04-05T07:24:49;6.83;;;5.83;;
7410;SDS011;3747;48.628;9.058;2023-04-05T07:27:17;8.70;;;6.00;;
7410;SDS011;3747;48.628;9.058;2023-04-05T07:29:44;6.37;;;5.73;;
7410;SDS011;3747;48.628;9.058;2023-04-05T07:32:12;6.77;;;5.97;;
7410;SDS011;3747;48.628;9.058;2023-04-05T07:34:38;5.90;;;5.30;;
7410;SDS011;3747;48.628;9.058;2023-04-05T07:37:05;8.00;;;5.83;;
7410;SDS011;3747;48.628;9.058;2023-04-05T07:39:32;7.70;;;5.93;;
7410;SDS011;3747;48.628;9.058;2023-04-05T07:42:00;6.33;;;5.10;;
7410;SDS011;3747;48.628;9.058;2023-04-05T07:44:28;6.97;;;6.23;;
7410;SDS011;3747;48.628;9.058;2023-04-05T07:46:55;6.17;;;5.40;;
7410;SDS011;3747;48.628;9.058;2023-04-05T07:49:25;4.77;;;4.40;;
7410;SDS011;3747;48.628;9.058;2023-04-05T07:51:56;6.03;;;4.63;;
7410;SDS011;3747;48.628;9.058;2023-04-05T07:54:23;5.80;;;4.33;;
7410;SDS011;3747;48.628;9.058;2023-04-05T07:56:50;6.80;;;4.63;;
7410;SDS011;3747;48.628;9.058;2023-04-05T07:59:17;4.80;;;4.40;;
7410;SDS011;3747;48.628;9.058;2023-04-05T08:01:45;5.93;;;4.80;;
7410;SDS011;3747;48.628;9.058;2023-04-05T08:04:11;6.57;;;4.87;;
7410;SDS011;3747;48.628;9.058;2023-04-05T08:06:38;5.43;;;4.93;;
7410;SDS011;3747;48.628;9.058;2023-04-05T08:09:05;8.57;;;4.90;;
7410;SDS011;3747;48.628;9.058;2023-04-05T08:11:33;5.63;;;5.07;;
7410;SDS011;3747;48.628;9.058;2023-04-05T08:14:07;8.63;;;5.43;;
7410;SDS011;3747;48.628;9.058;2023-04-05T08:16:33;5.07;;;4.57;;
7410;SDS011;3747;48.628;9.058;2023-04-05T08:19:01;6.17;;;5.57;;
7410;SDS011;3747;48.628;9.058;2023-04-05T08:21:28;6.37;;;5.33;;
7410;SDS011;3747;48.628;9.058;2023-04-05T08:23:55;5.20;;;4.70;;
7410;SDS011;3747;48.628;9.058;2023-04-05T08:26:24;4.80;;;4.20;;
7410;SDS011;3747;48.628;9.058;2023-04-05T08:28:50;5.20;;;4.73;;
7410;SDS011;3747;48.628;9.058;2023-04-05T08:31:17;4.77;;;4.33;;
7410;SDS011;3747;48.628;9.058;2023-04-05T08:33:44;4.77;;;4.03;;
7410;SDS011;3747;48.628;9.058;2023-04-05T08:36:12;5.70;;;4.00;;
7410;SDS011;3747;48.628;9.058;2023-04-05T08:38:39;4.40;;;4.00;;
7410;SDS011;3747;48.628;9.058;2023-04-05T08:41:06;5.37;;;4.37;;
7410;SDS011;3747;48.628;9.058;2023-04-05T08:43:44;4.73;;;4.23;;
7410;SDS011;3747;48.628;9.058;2023-04-05T08:46:20;4.97;;;4.23;;
7410;SDS011;3747;48.628;9.058;2023-04-05T08:48:47;5.27;;;4.57;;
7410;SDS011;3747;48.628;9.058;2023-04-05T08:51:18;6.00;;;3.90;;
7410;SDS011;3747;48.628;9.058;2023-04-05T08:53:46;4.37;;;4.00;;
7410;SDS011;3747;48.628;9.058;2023-04-05T08:56:14;4.53;;;4.13;;
7410;SDS011;3747;48.628;9.058;2023-04-05T08:58:55;4.90;;;4.00;;
7410;SDS011;3747;48.628;9.058;2023-04-05T09:01:26;4.03;;;3.63;;
7410;SDS011;3747;48.628;9.058;2023-04-05T09:03:55;4.13;;;3.80;;
7410;SDS011;3747;48.628;9.058;2023-04-05T09:06:26;4.20;;;3.80;;
7410;SDS011;3747;48.628;9.058;2023-04-05T09:08:53;4.03;;;3.73;;
7410;SDS011;3747;48.628;9.058;2023-04-05T09:11:22;5.73;;;4.30;;
7410;SDS011;3747;48.628;9.058;2023-04-05T09:13:57;4.17;;;3.77;;
7410;SDS011;3747;48.628;9.058;2023-04-05T09:16:30;4.37;;;4.07;;
7410;SDS011;3747;48.628;9.058;2023-04-05T09:18:58;4.03;;;3.50;;
7410;SDS011;3747;48.628;9.058;2023-04-05T09:21:27;4.60;;;4.13;;
7410;SDS011;3747;48.628;9.058;2023-04-05T09:23:54;4.63;;;3.60;;
7410;SDS011;3747;48.628;9.058;2023-04-05T09:26:21;6.33;;;4.67;;
7410;SDS011;3747;48.628;9.058;2023-04-05T09:28:49;4.33;;;3.97;;
7410;SDS011;3747;48.628;9.058;2023-04-05T09:31:28;5.10;;;4.60;;
7410;SDS011;3747;48.628;9.058;2023-04-05T09:33:57;5.10;;;4.37;;
7410;SDS011;3747;48.628;9.058;2023-04-05T09:36:25;4.63;;;4.00;;
7410;SDS011;3747;48.628;9.058;2023-04-05T09:38:54;4.30;;;3.70;;
7410;SDS011;3747;48.628;9.058;2023-04-05T09:41:30;5.43;;;4.60;;
7410;SDS011;3747;48.628;9.058;2023-04-05T09:43:57;4.80;;;4.40;;
7410;SDS011;3747;48.628;9.058;2023-04-05T09:46:28;7.20;;;4.47;;
7410;SDS011;3747;48.628;9.058;2023-04-05T09:48:56;4.03;;;3.63;;
7410;SDS011;3747;48.628;9.058;2023-04-05T09:51:23;4.30;;;3.90;;
7410;SDS011;3747;48.628;9.058;2023-04-05T09:53:59;3.90;;;3.60;;
7410;SDS011;3747;48.628;9.058;2023-04-05T09:56:27;5.10;;;4.10;;
7410;SDS011;3747;48.628;9.058;2023-04-05T09:58:59;3.80;;;3.50;;
7410;SDS011;3747;48.628;9.058;2023-04-05T10:01:26;4.77;;;3.37;;
7410;SDS011;3747;48.628;9.058;2023-04-05T10:03:55;4.47;;;4.03;;
7410;SDS011;3747;48.628;9.058;2023-04-05T10:06:23;4.33;;;3.93;;
7410;SDS011;3747;48.628;9.058;2023-04-05T10:09:00;3.70;;;3.40;;
7410;SDS011;3747;48.628;9.058;2023-04-05T10:11:28;3.90;;;3.60;;
7410;SDS011;3747;48.628;9.058;2023-04-05T10:13:55;4.63;;;3.60;;
7410;SDS011;3747;48.628;9.058;2023-04-05T10:16:25;4.30;;;3.97;;
7410;SDS011;3747;48.628;9.058;2023-04-05T10:18:54;4.20;;;3.80;;
7410;SDS011;3747;48.628;9.058;2023-04-05T10:21:22;4.20;;;3.87;;
7410;SDS011;3747;48.628;9.058;2023-04-05T10:23:52;4.80;;;4.40;;
7410;SDS011;3747;48.628;9.058;2023-04-05T10:26:28;5.33;;;4.13;;
7410;SDS011;3747;48.628;9.058;2023-04-05T10:29:06;4.63;;;4.23;;
7410;SDS011;3747;48.628;9.058;2023-04-05T10:31:38;4.30;;;3.97;;
7410;SDS011;3747;48.628;9.058;2023-04-05T10:34:17;3.83;;;3.53;;
7410;SDS011;3747;48.628;9.058;2023-04-05T10:36:55;4.27;;;3.77;;
7410;SDS011;3747;48.628;9.058;2023-04-05T10:39:25;4.97;;;4.50;;
7410;SDS011;3747;48.628;9.058;2023-04-05T10:41:57;6.00;;;4.30;;
7410;SDS011;3747;48.628;9.058;2023-04-05T10:44:26;5.40;;;4.60;;
7410;SDS011;3747;48.628;9.058;2023-04-05T10:46:58;6.00;;;4.57;;
7410;SDS011;3747;48.628;9.058;2023-04-05T10:49:31;5.07;;;4.57;;
7410;SDS011;3747;48.628;9.058;2023-04-05T10:52:02;4.60;;;4.20;;
7410;SDS011;3747;48.628;9.058;2023-04-05T10:54:31;4.53;;;4.13;;
7410;SDS011;3747;48.628;9.058;2023-04-05T10:57:00;5.10;;;4.63;;
7410;SDS011;3747;48.628;9.058;2023-04-05T10:59:29;5.53;;;4.27;;
7410;SDS011;3747;48.628;9.058;2023-04-05T11:01:56;5.13;;;4.23;;
7410;SDS011;3747;48.628;9.058;2023-04-05T11:04:24;4.83;;;4.43;;
7410;SDS011;3747;48.628;9.058;2023-04-05T11:09:36;4.70;;;4.13;;
7410;SDS011;3747;48.628;9.058;2023-04-05T11:12:06;4.50;;;4.10;;
7410;SDS011;3747;48.628;9.058;2023-04-05T11:14:34;4.87;;;4.27;;
7410;SDS011;3747;48.628;9.058;2023-04-05T11:17:03;4.73;;;4.03;;
7410;SDS011;3747;48.628;9.058;2023-04-05T11:19:48;5.67;;;3.90;;
7410;SDS011;3747;48.628;9.058;2023-04-05T11:22:23;5.47;;;4.07;;
7410;SDS011;3747;48.628;9.058;2023-04-05T11:24:51;5.60;;;4.63;;
7410;SDS011;3747;48.628;9.058;2023-04-05T11:27:24;5.23;;;4.57;;
7410;SDS011;3747;48.628;9.058;2023-04-05T11:29:52;4.57;;;4.17;;
7410;SDS011;3747;48.628;9.058;2023-04-05T11:32:19;6.10;;;4.50;;
7410;SDS011;3747;48.628;9.058;2023-04-05T11:34:56;4.70;;;4.27;;
7410;SDS011;3747;48.628;9.058;2023-04-05T11:40:32;4.50;;;4.20;;
7410;SDS011;3747;48.628;9.058;2023-04-05T11:43:04;4.97;;;4.47;;
7410;SDS011;3747;48.628;9.058;2023-04-05T11:45:33;5.27;;;4.87;;
7410;SDS011;3747;48.628;9.058;2023-04-05T11:48:03;5.10;;;4.67;;
7410;SDS011;3747;48.628;9.058;2023-04-05T11:50:31;4.23;;;3.77;;
7410;SDS011;3747;48.628;9.058;2023-04-05T11:53:11;4.90;;;4.50;;
7410;SDS011;3747;48.628;9.058;2023-04-05T11:55:39;4.10;;;3.80;;
7410;SDS011;3747;48.628;9.058;2023-04-05T11:58:13;4.63;;;4.23;;
7410;SDS011;3747;48.628;9.058;2023-04-05T12:00:40;4.50;;;4.17;;
7410;SDS011;3747;48.628;9.058;2023-04-05T12:03:13;4.80;;;4.40;;
7410;SDS011;3747;48.628;9.058;2023-04-05T12:05:48;4.93;;;3.70;;
7410;SDS011;3747;48.628;9.058;2023-04-05T12:08:15;5.47;;;4.83;;
7410;SDS011;3747;48.628;9.058;2023-04-05T12:10:42;4.67;;;4.27;;
7410;SDS011;3747;48.628;9.058;2023-04-05T12:13:09;4.10;;;3.80;;
7410;SDS011;3747;48.628;9.058;2023-04-05T12:15:37;4.87;;;4.47;;
7410;SDS011;3747;48.628;9.058;2023-04-05T12:18:11;5.10;;;4.60;;
7410;SDS011;3747;48.628;9.058;2023-04-05T12:20:39;5.17;;;4.67;;
7410;SDS011;3747;48.628;9.058;2023-04-05T12:23:06;4.97;;;4.60;;
7410;SDS011;3747;48.628;9.058;2023-04-05T12:25:33;4.70;;;4.17;;
7410;SDS011;3747;48.628;9.058;2023-04-05T12:28:03;5.67;;;4.43;;
7410;SDS011;3747;48.628;9.058;2023-04-05T12:30:32;4.53;;;4.13;;
7410;SDS011;3747;48.628;9.058;2023-04-05T12:33:06;7.07;;;5.17;;
7410;SDS011;3747;48.628;9.058;2023-04-05T12:35:34;5.17;;;4.37;;
7410;SDS011;3747;48.628;9.058;2023-04-05T12:38:01;4.20;;;3.80;;
7410;SDS011;3747;48.628;9.058;2023-04-05T12:40:29;4.23;;;3.83;;
7410;SDS011;3747;48.628;9.058;2023-04-05T12:43:00;5.03;;;4.00;;
7410;SDS011;3747;48.628;9.058;2023-04-05T12:45:28;4.77;;;4.23;;
7410;SDS011;3747;48.628;9.058;2023-04-05T12:47:56;4.70;;;4.27;;
7410;SDS011;3747;48.628;9.058;2023-04-05T12:50:25;5.30;;;4.23;;
7410;SDS011;3747;48.628;9.058;2023-04-05T12:52:54;4.00;;;3.63;;
7410;SDS011;3747;48.628;9.058;2023-04-05T12:55:22;4.37;;;4.07;;
7410;SDS011;3747;48.628;9.058;2023-04-05T12:57:50;4.17;;;3.87;;
7410;SDS011;3747;48.628;9.058;2023-04-05T13:00:18;4.43;;;4.13;;
7410;SDS011;3747;48.628;9.058;2023-04-05T13:02:48;4.90;;;4.50;;
7410;SDS011;3747;48.628;9.058;2023-04-05T13:05:17;4.97;;;4.57;;
7410;SDS011;3747;48.628;9.058;2023-04-05T13:07:46;6.13;;;4.93;;
7410;SDS011;3747;48.628;9.058;2023-04-05T13:10:13;5.20;;;4.70;;
7410;SDS011;3747;48.628;9.058;2023-04-05T13:12:40;4.93;;;4.53;;
7410;SDS011;3747;48.628;9.058;2023-04-05T13:15:07;4.67;;;4.27;;
7410;SDS011;3747;48.628;9.058;2023-04-05T13:17:34;4.23;;;3.93;;
7410;SDS011;3747;48.628;9.058;2023-04-05T13:20:01;5.27;;;4.77;;
7410;SDS011;3747;48.628;9.058;2023-04-05T13:22:28;4.50;;;4.10;;
7410;SDS011;3747;48.628;9.058;2023-04-05T13:24:57;4.90;;;4.47;;
7410;SDS011;3747;48.628;9.058;2023-04-05T13:27:23;4.73;;;4.20;;
7410;SDS011;3747;48.628;9.058;2023-04-05T13:29:50;6.13;;;4.47;;
7410;SDS011;3747;48.628;9.058;2023-04-05T13:32:17;5.23;;;4.60;;
7410;SDS011;3747;48.628;9.058;2023-04-05T13:34:46;5.27;;;4.13;;
7410;SDS011;3747;48.628;9.058;2023-04-05T13:37:13;4.63;;;4.33;;
7410;SDS011;3747;48.628;9.058;2023-04-05T13:39:40;4.40;;;3.97;;
7410;SDS011;3747;48.628;9.058;2023-04-05T13:42:08;4.93;;;4.00;;
7410;SDS011;3747;48.628;9.058;2023-04-05T13:44:35;4.17;;;3.87;;
7410;SDS011;3747;48.628;9.058;2023-04-05T13:47:02;3.73;;;3.43;;
7410;SDS011;3747;48.628;9.058;2023-04-05T13:49:28;5.23;;;4.63;;
7410;SDS011;3747;48.628;9.058;2023-04-05T13:51:55;4.60;;;4.20;;
7410;SDS011;3747;48.628;9.058;2023-04-05T13:54:22;4.53;;;4.17;;
7410;SDS011;3747;48.628;9.058;2023-04-05T13:56:48;4.87;;;4.47;;
7410;SDS011;3747;48.628;9.058;2023-04-05T13:59:16;4.13;;;3.70;;
7410;SDS011;3747;48.628;9.058;2023-04-05T14:01:44;3.67;;;3.37;;
7410;SDS011;3747;48.628;9.058;2023-04-05T14:04:15;3.97;;;3.50;;
7410;SDS011;3747;48.628;9.058;2023-04-05T14:06:42;3.53;;;3.33;;
7410;SDS011;3747;48.628;9.058;2023-04-05T14:09:09;6.13;;;3.50;;
7410;SDS011;3747;48.628;9.058;2023-04-05T14:11:36;6.50;;;4.60;;
7410;SDS011;3747;48.628;9.058;2023-04-05T14:14:02;4.10;;;3.70;;
7410;SDS011;3747;48.628;9.058;2023-04-05T14:16:31;3.97;;;3.63;;
7410;SDS011;3747;48.628;9.058;2023-04-05T14:18:59;4.23;;;3.83;;
7410;SDS011;3747;48.628;9.058;2023-04-05T14:21:26;3.37;;;3.17;;
7410;SDS011;3747;48.628;9.058;2023-04-05T14:23:52;6.53;;;4.20;;
7410;SDS011;3747;48.628;9.058;2023-04-05T14:26:21;4.70;;;3.83;;
7410;SDS011;3747;48.628;9.058;2023-04-05T14:28:49;4.70;;;4.20;;
7410;SDS011;3747;48.628;9.058;2023-04-05T14:31:16;4.47;;;4.03;;
7410;SDS011;3747;48.628;9.058;2023-04-05T14:33:44;4.13;;;3.83;;
7410;SDS011;3747;48.628;9.058;2023-04-05T14:36:10;4.00;;;3.70;;
7410;SDS011;3747;48.628;9.058;2023-04-05T14:38:37;4.00;;;3.77;;
7410;SDS011;3747;48.628;9.058;2023-04-05T14:41:04;4.47;;;4.07;;
7410;SDS011;3747;48.628;9.058;2023-04-05T14:43:34;4.90;;;4.20;;
7410;SDS011;3747;48.628;9.058;2023-04-05T14:46:02;3.77;;;3.47;;
7410;SDS011;3747;48.628;9.058;2023-04-05T14:48:29;4.30;;;3.87;;
7410;SDS011;3747;48.628;9.058;2023-04-05T14:50:59;4.20;;;3.90;;
7410;SDS011;3747;48.628;9.058;2023-04-05T14:53:26;6.50;;;3.73;;
7410;SDS011;3747;48.628;9.058;2023-04-05T14:55:52;4.27;;;3.77;;
7410;SDS011;3747;48.628;9.058;2023-04-05T14:58:19;4.63;;;4.17;;
7410;SDS011;3747;48.628;9.058;2023-04-05T15:00:46;4.73;;;4.10;;
7410;SDS011;3747;48.628;9.058;2023-04-05T15:03:14;5.80;;;4.87;;
7410;SDS011;3747;48.628;9.058;2023-04-05T15:05:47;4.30;;;4.00;;
7410;SDS011;3747;48.628;9.058;2023-04-05T15:08:16;4.17;;;3.87;;
7410;SDS011;3747;48.628;9.058;2023-04-05T15:10:42;4.73;;;4.33;;
7410;SDS011;3747;48.628;9.058;2023-04-05T15:13:10;4.73;;;4.40;;
7410;SDS011;3747;48.628;9.058;2023-04-05T15:15:37;5.10;;;4.70;;
7410;SDS011;3747;48.628;9.058;2023-04-05T15:18:04;4.30;;;3.90;;
7410;SDS011;3747;48.628;9.058;2023-04-05T15:20:33;5.77;;;4.70;;
7410;SDS011;3747;48.628;9.058;2023-04-05T15:23:00;5.47;;;4.63;;
7410;SDS011;3747;48.628;9.058;2023-04-05T15:25:29;4.43;;;4.03;;
7410;SDS011;3747;48.628;9.058;2023-04-05T15:28:02;4.23;;;3.83;;
7410;SDS011;3747;48.628;9.058;2023-04-05T15:30:30;5.20;;;4.80;;